sensor_id;sensor_type;location;lat;lon;timestamp;P1;durP1;ratioP1;P2;durP2;ratioP2
14883;SDS011;7534;50.762;7.000;2022-12-18T00:01:33;25.30;;;12.33;;
14883;SDS011;7534;50.762;7.000;2022-12-18T00:04:04;29.10;;;14.03;;
14883;SDS011;7534;50.762;7.000;2022-12-18T00:06:34;25.97;;;12.17;;
14883;SDS011;7534;50.762;7.000;2022-12-18T00:09:04;21.53;;;12.40;;
14883;SDS011;7534;50.762;7.000;2022-12-18T00:11:32;25.63;;;12.37;;
14883;SDS011;7534;50.762;7.000;2022-12-18T00:14:05;25.23;;;12.67;;
14883;SDS011;7534;50.762;7.000;2022-12-18T00:16:33;24.10;;;12.33;;
14883;SDS011;7534;50.762;7.000;2022-12-18T00:19:05;25.07;;;11.93;;
14883;SDS011;7534;50.762;7.000;2022-12-18T00:21:35;23.50;;;11.57;;
14883;SDS011;7534;50.762;7.000;2022-12-18T00:24:21;27.53;;;12.60;;
14883;SDS011;7534;50.762;7.000;2022-12-18T00:26:48;23.33;;;11.60;;
14883;SDS011;7534;50.762;7.000;2022-12-18T00:29:20;24.17;;;11.37;;
14883;SDS011;7534;50.762;7.000;2022-12-18T00:31:50;20.10;;;10.33;;
14883;SDS011;7534;50.762;7.000;2022-12-18T00:34:20;23.20;;;11.93;;
14883;SDS011;7534;50.762;7.000;2022-12-18T00:36:50;27.17;;;12.33;;
14883;SDS011;7534;50.762;7.000;2022-12-18T00:39:20;26.20;;;12.57;;
14883;SDS011;7534;50.762;7.000;2022-12-18T00:41:52;25.37;;;12.63;;
14883;SDS011;7534;50.762;7.000;2022-12-18T00:44:40;23.73;;;11.70;;
14883;SDS011;7534;50.762;7.000;2022-12-18T00:47:09;25.97;;;12.13;;
14883;SDS011;7534;50.762;7.000;2022-12-18T00:49:36;24.43;;;11.23;;
14883;SDS011;7534;50.762;7.000;2022-12-18T00:52:03;20.93;;;11.57;;
14883;SDS011;7534;50.762;7.000;2022-12-18T00:54:33;25.83;;;12.23;;
14883;SDS011;7534;50.762;7.000;2022-12-18T00:57:01;27.07;;;12.40;;
14883;SDS011;7534;50.762;7.000;2022-12-18T00:59:33;21.20;;;11.43;;
14883;SDS011;7534;50.762;7.000;2022-12-18T01:02:04;22.57;;;11.30;;
14883;SDS011;7534;50.762;7.000;2022-12-18T01:04:32;23.93;;;11.67;;
14883;SDS011;7534;50.762;7.000;2022-12-18T01:07:00;27.93;;;11.13;;
14883;SDS011;7534;50.762;7.000;2022-12-18T01:09:27;23.73;;;10.77;;
14883;SDS011;7534;50.762;7.000;2022-12-18T01:11:57;24.27;;;10.67;;
14883;SDS011;7534;50.762;7.000;2022-12-18T01:14:27;21.67;;;10.50;;
14883;SDS011;7534;50.762;7.000;2022-12-18T01:16:55;20.23;;;10.50;;
14883;SDS011;7534;50.762;7.000;2022-12-18T01:19:23;20.83;;;9.67;;
14883;SDS011;7534;50.762;7.000;2022-12-18T01:21:50;22.83;;;11.40;;
14883;SDS011;7534;50.762;7.000;2022-12-18T01:24:28;21.50;;;10.27;;
14883;SDS011;7534;50.762;7.000;2022-12-18T01:26:54;22.23;;;10.50;;
14883;SDS011;7534;50.762;7.000;2022-12-18T01:29:19;23.40;;;10.40;;
14883;SDS011;7534;50.762;7.000;2022-12-18T01:31:45;20.13;;;9.70;;
14883;SDS011;7534;50.762;7.000;2022-12-18T01:34:10;23.07;;;10.60;;
14883;SDS011;7534;50.762;7.000;2022-12-18T01:36:37;25.33;;;11.17;;
14883;SDS011;7534;50.762;7.000;2022-12-18T01:39:07;27.57;;;12.47;;
14883;SDS011;7534;50.762;7.000;2022-12-18T01:41:38;25.40;;;11.80;;
14883;SDS011;7534;50.762;7.000;2022-12-18T01:47:30;28.40;;;11.13;;
14883;SDS011;7534;50.762;7.000;2022-12-18T01:52:43;23.40;;;10.77;;
14883;SDS011;7534;50.762;7.000;2022-12-18T01:55:17;21.83;;;10.50;;
14883;SDS011;7534;50.762;7.000;2022-12-18T01:57:47;26.77;;;11.97;;
14883;SDS011;7534;50.762;7.000;2022-12-18T02:00:17;27.10;;;11.63;;
14883;SDS011;7534;50.762;7.000;2022-12-18T02:02:46;24.10;;;11.47;;
14883;SDS011;7534;50.762;7.000;2022-12-18T02:05:16;25.60;;;11.10;;
14883;SDS011;7534;50.762;7.000;2022-12-18T02:08:15;21.00;;;10.57;;
14883;SDS011;7534;50.762;7.000;2022-12-18T02:10:51;27.13;;;11.47;;
14883;SDS011;7534;50.762;7.000;2022-12-18T02:13:43;27.77;;;12.40;;
14883;SDS011;7534;50.762;7.000;2022-12-18T02:19:41;24.13;;;11.30;;
14883;SDS011;7534;50.762;7.000;2022-12-18T02:22:40;22.10;;;11.37;;
14883;SDS011;7534;50.762;7.000;2022-12-18T02:28:18;23.57;;;10.83;;
14883;SDS011;7534;50.762;7.000;2022-12-18T02:30:50;25.03;;;11.93;;
14883;SDS011;7534;50.762;7.000;2022-12-18T02:33:22;24.40;;;11.40;;
14883;SDS011;7534;50.762;7.000;2022-12-18T02:35:52;26.57;;;11.23;;
14883;SDS011;7534;50.762;7.000;2022-12-18T02:38:23;27.10;;;12.37;;
14883;SDS011;7534;50.762;7.000;2022-12-18T02:40:50;23.20;;;10.93;;
14883;SDS011;7534;50.762;7.000;2022-12-18T02:43:18;26.23;;;11.33;;
14883;SDS011;7534;50.762;7.000;2022-12-18T02:45:54;29.53;;;13.17;;
14883;SDS011;7534;50.762;7.000;2022-12-18T02:48:31;24.43;;;10.43;;
14883;SDS011;7534;50.762;7.000;2022-12-18T02:51:04;27.30;;;11.20;;
14883;SDS011;7534;50.762;7.000;2022-12-18T02:54:08;27.00;;;10.93;;
14883;SDS011;7534;50.762;7.000;2022-12-18T02:57:01;23.60;;;10.70;;
14883;SDS011;7534;50.762;7.000;2022-12-18T03:05:43;27.60;;;10.83;;
14883;SDS011;7534;50.762;7.000;2022-12-18T03:08:21;26.60;;;11.37;;
14883;SDS011;7534;50.762;7.000;2022-12-18T03:10:58;24.77;;;11.63;;
14883;SDS011;7534;50.762;7.000;2022-12-18T03:13:34;27.00;;;11.90;;
14883;SDS011;7534;50.762;7.000;2022-12-18T03:16:05;25.27;;;10.97;;
14883;SDS011;7534;50.762;7.000;2022-12-18T03:18:37;26.13;;;11.57;;
14883;SDS011;7534;50.762;7.000;2022-12-18T03:21:11;24.77;;;11.03;;
14883;SDS011;7534;50.762;7.000;2022-12-18T03:23:44;25.63;;;10.30;;
14883;SDS011;7534;50.762;7.000;2022-12-18T03:26:17;28.73;;;11.40;;
14883;SDS011;7534;50.762;7.000;2022-12-18T03:28:51;27.77;;;12.83;;
14883;SDS011;7534;50.762;7.000;2022-12-18T03:31:46;27.07;;;10.53;;
14883;SDS011;7534;50.762;7.000;2022-12-18T03:34:32;26.60;;;11.07;;
14883;SDS011;7534;50.762;7.000;2022-12-18T03:37:01;25.30;;;11.20;;
14883;SDS011;7534;50.762;7.000;2022-12-18T03:39:27;26.17;;;10.97;;
14883;SDS011;7534;50.762;7.000;2022-12-18T03:42:01;25.30;;;10.53;;
14883;SDS011;7534;50.762;7.000;2022-12-18T03:47:32;23.57;;;10.90;;
14883;SDS011;7534;50.762;7.000;2022-12-18T03:50:19;23.17;;;10.73;;
14883;SDS011;7534;50.762;7.000;2022-12-18T03:53:10;22.47;;;10.50;;
14883;SDS011;7534;50.762;7.000;2022-12-18T03:55:56;29.10;;;11.73;;
14883;SDS011;7534;50.762;7.000;2022-12-18T03:58:24;24.33;;;11.23;;
14883;SDS011;7534;50.762;7.000;2022-12-18T04:00:53;27.03;;;11.70;;
14883;SDS011;7534;50.762;7.000;2022-12-18T04:03:24;27.80;;;11.57;;
14883;SDS011;7534;50.762;7.000;2022-12-18T04:05:53;24.30;;;11.40;;
14883;SDS011;7534;50.762;7.000;2022-12-18T04:08:21;26.33;;;10.70;;
14883;SDS011;7534;50.762;7.000;2022-12-18T04:10:48;26.10;;;11.63;;
14883;SDS011;7534;50.762;7.000;2022-12-18T04:13:21;23.53;;;10.93;;
14883;SDS011;7534;50.762;7.000;2022-12-18T04:15:56;25.40;;;10.77;;
14883;SDS011;7534;50.762;7.000;2022-12-18T04:18:22;24.53;;;10.10;;
14883;SDS011;7534;50.762;7.000;2022-12-18T04:20:48;27.53;;;11.93;;
14883;SDS011;7534;50.762;7.000;2022-12-18T04:23:13;25.37;;;11.07;;
14883;SDS011;7534;50.762;7.000;2022-12-18T04:25:39;26.93;;;11.10;;
14883;SDS011;7534;50.762;7.000;2022-12-18T04:28:05;24.77;;;11.40;;
14883;SDS011;7534;50.762;7.000;2022-12-18T04:30:31;26.60;;;11.00;;
14883;SDS011;7534;50.762;7.000;2022-12-18T04:32:57;24.00;;;10.63;;
14883;SDS011;7534;50.762;7.000;2022-12-18T04:35:22;27.30;;;10.97;;
14883;SDS011;7534;50.762;7.000;2022-12-18T04:37:48;23.20;;;11.07;;
14883;SDS011;7534;50.762;7.000;2022-12-18T04:40:14;23.90;;;10.90;;
14883;SDS011;7534;50.762;7.000;2022-12-18T04:42:40;20.77;;;10.53;;
14883;SDS011;7534;50.762;7.000;2022-12-18T04:45:06;20.70;;;10.10;;
14883;SDS011;7534;50.762;7.000;2022-12-18T04:47:32;19.93;;;10.33;;
14883;SDS011;7534;50.762;7.000;2022-12-18T04:49:58;20.83;;;10.17;;
14883;SDS011;7534;50.762;7.000;2022-12-18T04:52:24;22.77;;;11.27;;
14883;SDS011;7534;50.762;7.000;2022-12-18T04:54:50;22.97;;;10.53;;
14883;SDS011;7534;50.762;7.000;2022-12-18T04:57:15;22.23;;;10.30;;
14883;SDS011;7534;50.762;7.000;2022-12-18T04:59:42;22.37;;;10.47;;
14883;SDS011;7534;50.762;7.000;2022-12-18T05:02:09;25.13;;;10.63;;
14883;SDS011;7534;50.762;7.000;2022-12-18T05:04:35;24.93;;;11.50;;
14883;SDS011;7534;50.762;7.000;2022-12-18T05:07:01;26.37;;;11.70;;
14883;SDS011;7534;50.762;7.000;2022-12-18T05:09:26;24.30;;;10.70;;
14883;SDS011;7534;50.762;7.000;2022-12-18T05:11:52;23.53;;;10.97;;
14883;SDS011;7534;50.762;7.000;2022-12-18T05:14:18;26.87;;;11.67;;
14883;SDS011;7534;50.762;7.000;2022-12-18T05:16:44;24.63;;;11.10;;
14883;SDS011;7534;50.762;7.000;2022-12-18T05:19:10;26.47;;;11.90;;
14883;SDS011;7534;50.762;7.000;2022-12-18T05:21:35;24.40;;;11.63;;
14883;SDS011;7534;50.762;7.000;2022-12-18T05:24:01;27.20;;;12.80;;
14883;SDS011;7534;50.762;7.000;2022-12-18T05:26:27;22.40;;;10.90;;
14883;SDS011;7534;50.762;7.000;2022-12-18T05:28:52;26.77;;;11.63;;
14883;SDS011;7534;50.762;7.000;2022-12-18T05:31:21;28.27;;;11.47;;
14883;SDS011;7534;50.762;7.000;2022-12-18T05:33:47;26.60;;;11.67;;
14883;SDS011;7534;50.762;7.000;2022-12-18T05:36:13;26.47;;;11.67;;
14883;SDS011;7534;50.762;7.000;2022-12-18T05:38:39;24.33;;;12.50;;
14883;SDS011;7534;50.762;7.000;2022-12-18T05:41:06;24.47;;;11.50;;
14883;SDS011;7534;50.762;7.000;2022-12-18T05:43:34;23.43;;;11.33;;
14883;SDS011;7534;50.762;7.000;2022-12-18T05:46:05;24.57;;;11.40;;
14883;SDS011;7534;50.762;7.000;2022-12-18T05:48:35;25.70;;;11.60;;
14883;SDS011;7534;50.762;7.000;2022-12-18T05:51:05;22.83;;;10.83;;
14883;SDS011;7534;50.762;7.000;2022-12-18T05:53:34;22.40;;;10.70;;
14883;SDS011;7534;50.762;7.000;2022-12-18T05:56:02;24.57;;;11.43;;
14883;SDS011;7534;50.762;7.000;2022-12-18T05:58:31;25.90;;;11.07;;
14883;SDS011;7534;50.762;7.000;2022-12-18T06:00:57;27.00;;;13.00;;
14883;SDS011;7534;50.762;7.000;2022-12-18T06:03:35;24.27;;;11.60;;
14883;SDS011;7534;50.762;7.000;2022-12-18T06:06:01;28.40;;;11.70;;
14883;SDS011;7534;50.762;7.000;2022-12-18T06:08:27;22.23;;;11.27;;
14883;SDS011;7534;50.762;7.000;2022-12-18T06:10:53;24.23;;;11.80;;
14883;SDS011;7534;50.762;7.000;2022-12-18T06:13:19;28.60;;;12.13;;
14883;SDS011;7534;50.762;7.000;2022-12-18T06:15:46;25.53;;;12.60;;
14883;SDS011;7534;50.762;7.000;2022-12-18T06:18:12;25.90;;;11.50;;
14883;SDS011;7534;50.762;7.000;2022-12-18T06:20:38;24.20;;;11.13;;
14883;SDS011;7534;50.762;7.000;2022-12-18T06:23:05;27.60;;;11.90;;
14883;SDS011;7534;50.762;7.000;2022-12-18T06:25:31;24.83;;;12.03;;
14883;SDS011;7534;50.762;7.000;2022-12-18T06:27:57;27.83;;;11.57;;
14883;SDS011;7534;50.762;7.000;2022-12-18T06:30:23;23.87;;;11.20;;
14883;SDS011;7534;50.762;7.000;2022-12-18T06:32:49;24.63;;;11.57;;
14883;SDS011;7534;50.762;7.000;2022-12-18T06:35:16;20.67;;;11.37;;
14883;SDS011;7534;50.762;7.000;2022-12-18T06:37:41;21.83;;;10.87;;
14883;SDS011;7534;50.762;7.000;2022-12-18T06:40:07;25.33;;;12.13;;
14883;SDS011;7534;50.762;7.000;2022-12-18T06:42:33;22.87;;;10.77;;
14883;SDS011;7534;50.762;7.000;2022-12-18T06:45:01;24.93;;;11.90;;
14883;SDS011;7534;50.762;7.000;2022-12-18T06:47:26;23.47;;;10.73;;
14883;SDS011;7534;50.762;7.000;2022-12-18T06:49:53;24.80;;;12.30;;
14883;SDS011;7534;50.762;7.000;2022-12-18T06:52:18;21.43;;;12.00;;
14883;SDS011;7534;50.762;7.000;2022-12-18T06:54:44;23.30;;;11.27;;
14883;SDS011;7534;50.762;7.000;2022-12-18T06:57:10;27.93;;;12.07;;
14883;SDS011;7534;50.762;7.000;2022-12-18T06:59:36;22.33;;;11.90;;
14883;SDS011;7534;50.762;7.000;2022-12-18T07:02:02;24.07;;;11.77;;
14883;SDS011;7534;50.762;7.000;2022-12-18T07:04:28;23.73;;;12.10;;
14883;SDS011;7534;50.762;7.000;2022-12-18T07:06:55;22.17;;;11.63;;
14883;SDS011;7534;50.762;7.000;2022-12-18T07:09:21;25.77;;;12.47;;
14883;SDS011;7534;50.762;7.000;2022-12-18T07:11:46;22.30;;;11.30;;
14883;SDS011;7534;50.762;7.000;2022-12-18T07:14:12;23.13;;;11.77;;
14883;SDS011;7534;50.762;7.000;2022-12-18T07:16:37;24.40;;;11.93;;
14883;SDS011;7534;50.762;7.000;2022-12-18T07:19:03;24.57;;;11.67;;
14883;SDS011;7534;50.762;7.000;2022-12-18T07:21:29;24.07;;;11.47;;
14883;SDS011;7534;50.762;7.000;2022-12-18T07:23:54;21.77;;;11.23;;
14883;SDS011;7534;50.762;7.000;2022-12-18T07:26:21;23.97;;;11.97;;
14883;SDS011;7534;50.762;7.000;2022-12-18T07:28:47;25.10;;;11.27;;
14883;SDS011;7534;50.762;7.000;2022-12-18T07:31:15;21.40;;;10.70;;
14883;SDS011;7534;50.762;7.000;2022-12-18T07:33:45;22.40;;;11.10;;
14883;SDS011;7534;50.762;7.000;2022-12-18T07:36:11;25.43;;;11.80;;
14883;SDS011;7534;50.762;7.000;2022-12-18T07:38:38;23.37;;;11.83;;
14883;SDS011;7534;50.762;7.000;2022-12-18T07:41:05;27.17;;;12.10;;
14883;SDS011;7534;50.762;7.000;2022-12-18T07:43:37;23.23;;;11.53;;
14883;SDS011;7534;50.762;7.000;2022-12-18T07:46:04;24.07;;;12.10;;
14883;SDS011;7534;50.762;7.000;2022-12-18T07:48:31;26.33;;;13.30;;
14883;SDS011;7534;50.762;7.000;2022-12-18T07:50:58;22.90;;;11.20;;
14883;SDS011;7534;50.762;7.000;2022-12-18T07:53:31;24.43;;;12.00;;
14883;SDS011;7534;50.762;7.000;2022-12-18T07:56:00;25.47;;;12.50;;
14883;SDS011;7534;50.762;7.000;2022-12-18T07:58:32;23.17;;;11.00;;
14883;SDS011;7534;50.762;7.000;2022-12-18T08:01:03;22.33;;;12.17;;
14883;SDS011;7534;50.762;7.000;2022-12-18T08:03:33;21.70;;;11.37;;
14883;SDS011;7534;50.762;7.000;2022-12-18T08:06:03;23.97;;;12.30;;
14883;SDS011;7534;50.762;7.000;2022-12-18T08:08:31;24.27;;;11.67;;
14883;SDS011;7534;50.762;7.000;2022-12-18T08:10:58;23.60;;;11.77;;
14883;SDS011;7534;50.762;7.000;2022-12-18T08:13:24;21.57;;;11.23;;
14883;SDS011;7534;50.762;7.000;2022-12-18T08:16:01;24.10;;;12.60;;
14883;SDS011;7534;50.762;7.000;2022-12-18T08:18:31;22.53;;;12.20;;
14883;SDS011;7534;50.762;7.000;2022-12-18T08:21:07;22.30;;;12.07;;
14883;SDS011;7534;50.762;7.000;2022-12-18T08:23:34;23.40;;;11.77;;
14883;SDS011;7534;50.762;7.000;2022-12-18T08:26:00;25.43;;;12.17;;
14883;SDS011;7534;50.762;7.000;2022-12-18T08:28:26;22.57;;;11.30;;
14883;SDS011;7534;50.762;7.000;2022-12-18T08:30:52;21.50;;;11.43;;
14883;SDS011;7534;50.762;7.000;2022-12-18T08:33:18;24.07;;;12.73;;
14883;SDS011;7534;50.762;7.000;2022-12-18T08:35:43;25.10;;;12.80;;
14883;SDS011;7534;50.762;7.000;2022-12-18T08:38:09;22.07;;;11.93;;
14883;SDS011;7534;50.762;7.000;2022-12-18T08:40:35;22.93;;;11.80;;
14883;SDS011;7534;50.762;7.000;2022-12-18T08:43:00;19.10;;;11.50;;
14883;SDS011;7534;50.762;7.000;2022-12-18T08:45:45;17.63;;;10.63;;
14883;SDS011;7534;50.762;7.000;2022-12-18T08:48:11;17.93;;;10.20;;
14883;SDS011;7534;50.762;7.000;2022-12-18T08:50:37;19.60;;;10.40;;
14883;SDS011;7534;50.762;7.000;2022-12-18T08:53:02;21.23;;;11.07;;
14883;SDS011;7534;50.762;7.000;2022-12-18T08:55:28;17.73;;;9.87;;
14883;SDS011;7534;50.762;7.000;2022-12-18T08:57:54;19.30;;;10.57;;
14883;SDS011;7534;50.762;7.000;2022-12-18T09:00:20;19.30;;;10.67;;
14883;SDS011;7534;50.762;7.000;2022-12-18T09:02:45;19.37;;;9.63;;
14883;SDS011;7534;50.762;7.000;2022-12-18T09:05:11;19.10;;;10.27;;
14883;SDS011;7534;50.762;7.000;2022-12-18T09:07:37;16.93;;;9.60;;
14883;SDS011;7534;50.762;7.000;2022-12-18T09:10:03;14.73;;;8.67;;
14883;SDS011;7534;50.762;7.000;2022-12-18T09:12:31;17.53;;;9.63;;
14883;SDS011;7534;50.762;7.000;2022-12-18T09:14:57;17.07;;;8.43;;
14883;SDS011;7534;50.762;7.000;2022-12-18T09:17:22;18.93;;;9.87;;
14883;SDS011;7534;50.762;7.000;2022-12-18T09:19:48;12.20;;;7.93;;
14883;SDS011;7534;50.762;7.000;2022-12-18T09:22:14;15.60;;;9.07;;
14883;SDS011;7534;50.762;7.000;2022-12-18T09:24:40;16.67;;;8.90;;
14883;SDS011;7534;50.762;7.000;2022-12-18T09:27:05;16.80;;;8.70;;
14883;SDS011;7534;50.762;7.000;2022-12-18T09:29:31;16.67;;;9.00;;
14883;SDS011;7534;50.762;7.000;2022-12-18T09:31:57;15.90;;;9.27;;
14883;SDS011;7534;50.762;7.000;2022-12-18T09:34:23;15.83;;;9.20;;
14883;SDS011;7534;50.762;7.000;2022-12-18T09:36:50;16.63;;;8.30;;
14883;SDS011;7534;50.762;7.000;2022-12-18T09:39:16;18.10;;;9.70;;
14883;SDS011;7534;50.762;7.000;2022-12-18T09:41:52;17.90;;;9.43;;
14883;SDS011;7534;50.762;7.000;2022-12-18T09:50:04;18.17;;;9.37;;
14883;SDS011;7534;50.762;7.000;2022-12-18T09:52:47;14.90;;;8.83;;
14883;SDS011;7534;50.762;7.000;2022-12-18T09:57:56;17.27;;;9.37;;
14883;SDS011;7534;50.762;7.000;2022-12-18T10:00:52;18.83;;;9.20;;
14883;SDS011;7534;50.762;7.000;2022-12-18T10:03:18;14.70;;;9.57;;
14883;SDS011;7534;50.762;7.000;2022-12-18T10:08:33;15.17;;;8.80;;
14883;SDS011;7534;50.762;7.000;2022-12-18T10:20:02;18.53;;;10.00;;
14883;SDS011;7534;50.762;7.000;2022-12-18T10:28:33;17.57;;;9.77;;
14883;SDS011;7534;50.762;7.000;2022-12-18T10:31:04;16.13;;;9.70;;
14883;SDS011;7534;50.762;7.000;2022-12-18T10:33:41;15.03;;;9.10;;
14883;SDS011;7534;50.762;7.000;2022-12-18T10:36:07;17.47;;;10.30;;
14883;SDS011;7534;50.762;7.000;2022-12-18T10:38:34;18.83;;;10.80;;
14883;SDS011;7534;50.762;7.000;2022-12-18T10:41:04;19.10;;;11.07;;
14883;SDS011;7534;50.762;7.000;2022-12-18T10:43:42;18.97;;;11.73;;
14883;SDS011;7534;50.762;7.000;2022-12-18T10:51:19;17.60;;;10.30;;
14883;SDS011;7534;50.762;7.000;2022-12-18T10:54:03;20.23;;;10.77;;
14883;SDS011;7534;50.762;7.000;2022-12-18T10:56:39;19.53;;;11.03;;
14883;SDS011;7534;50.762;7.000;2022-12-18T10:59:06;16.50;;;9.97;;
14883;SDS011;7534;50.762;7.000;2022-12-18T11:02:00;17.77;;;10.77;;
14883;SDS011;7534;50.762;7.000;2022-12-18T11:04:30;19.07;;;10.87;;
14883;SDS011;7534;50.762;7.000;2022-12-18T11:07:06;18.00;;;10.27;;
14883;SDS011;7534;50.762;7.000;2022-12-18T11:09:37;19.33;;;10.83;;
14883;SDS011;7534;50.762;7.000;2022-12-18T11:12:27;17.73;;;10.53;;
14883;SDS011;7534;50.762;7.000;2022-12-18T11:14:54;17.37;;;10.00;;
14883;SDS011;7534;50.762;7.000;2022-12-18T11:20:01;19.50;;;11.20;;
14883;SDS011;7534;50.762;7.000;2022-12-18T11:22:45;16.03;;;10.40;;
14883;SDS011;7534;50.762;7.000;2022-12-18T11:25:26;18.93;;;10.13;;
14883;SDS011;7534;50.762;7.000;2022-12-18T11:27:53;17.37;;;10.67;;
14883;SDS011;7534;50.762;7.000;2022-12-18T11:30:35;17.97;;;10.73;;
14883;SDS011;7534;50.762;7.000;2022-12-18T11:33:05;18.37;;;10.53;;
14883;SDS011;7534;50.762;7.000;2022-12-18T11:35:47;18.37;;;10.23;;
14883;SDS011;7534;50.762;7.000;2022-12-18T11:38:24;21.83;;;11.60;;
14883;SDS011;7534;50.762;7.000;2022-12-18T11:46:14;17.87;;;10.73;;
14883;SDS011;7534;50.762;7.000;2022-12-18T11:49:08;15.20;;;9.60;;
14883;SDS011;7534;50.762;7.000;2022-12-18T11:51:51;17.60;;;10.80;;
14883;SDS011;7534;50.762;7.000;2022-12-18T11:54:50;18.63;;;9.87;;
14883;SDS011;7534;50.762;7.000;2022-12-18T12:02:56;18.00;;;11.00;;
14883;SDS011;7534;50.762;7.000;2022-12-18T12:06:10;20.63;;;10.40;;
14883;SDS011;7534;50.762;7.000;2022-12-18T12:18:16;18.90;;;10.10;;
14883;SDS011;7534;50.762;7.000;2022-12-18T12:21:10;17.73;;;10.80;;
14883;SDS011;7534;50.762;7.000;2022-12-18T12:32:27;20.40;;;10.73;;
14883;SDS011;7534;50.762;7.000;2022-12-18T12:38:23;19.43;;;10.63;;
14883;SDS011;7534;50.762;7.000;2022-12-18T12:40:58;18.93;;;10.10;;
14883;SDS011;7534;50.762;7.000;2022-12-18T12:43:43;18.57;;;10.50;;
14883;SDS011;7534;50.762;7.000;2022-12-18T12:46:14;18.73;;;10.93;;
14883;SDS011;7534;50.762;7.000;2022-12-18T12:48:48;17.37;;;11.30;;
14883;SDS011;7534;50.762;7.000;2022-12-18T12:51:21;17.47;;;10.53;;
14883;SDS011;7534;50.762;7.000;2022-12-18T12:53:57;20.40;;;11.77;;
14883;SDS011;7534;50.762;7.000;2022-12-18T12:56:32;20.00;;;11.50;;
14883;SDS011;7534;50.762;7.000;2022-12-18T13:02:37;16.87;;;10.10;;
14883;SDS011;7534;50.762;7.000;2022-12-18T13:05:23;23.65;;;14.48;;
14883;SDS011;7534;50.762;7.000;2022-12-18T13:08:05;21.43;;;12.50;;
14883;SDS011;7534;50.762;7.000;2022-12-18T13:10:46;21.60;;;12.03;;
14883;SDS011;7534;50.762;7.000;2022-12-18T13:13:12;19.77;;;11.87;;
14883;SDS011;7534;50.762;7.000;2022-12-18T13:15:44;19.40;;;11.20;;
14883;SDS011;7534;50.762;7.000;2022-12-18T13:18:29;19.43;;;11.33;;
14883;SDS011;7534;50.762;7.000;2022-12-18T13:25:51;18.23;;;11.20;;
14883;SDS011;7534;50.762;7.000;2022-12-18T13:36:49;19.53;;;11.03;;
14883;SDS011;7534;50.762;7.000;2022-12-18T13:39:21;20.60;;;11.43;;
14883;SDS011;7534;50.762;7.000;2022-12-18T13:44:33;20.80;;;11.90;;
14883;SDS011;7534;50.762;7.000;2022-12-18T13:47:02;21.17;;;12.70;;
14883;SDS011;7534;50.762;7.000;2022-12-18T13:52:22;22.10;;;12.20;;
14883;SDS011;7534;50.762;7.000;2022-12-18T13:54:55;20.67;;;11.93;;
14883;SDS011;7534;50.762;7.000;2022-12-18T13:57:28;21.10;;;12.37;;
14883;SDS011;7534;50.762;7.000;2022-12-18T13:59:57;21.90;;;12.97;;
14883;SDS011;7534;50.762;7.000;2022-12-18T14:02:37;21.40;;;12.03;;
14883;SDS011;7534;50.762;7.000;2022-12-18T14:05:03;23.33;;;12.83;;
14883;SDS011;7534;50.762;7.000;2022-12-18T14:07:29;21.97;;;12.07;;
14883;SDS011;7534;50.762;7.000;2022-12-18T14:09:57;22.17;;;11.90;;
14883;SDS011;7534;50.762;7.000;2022-12-18T14:12:32;23.90;;;12.07;;
14883;SDS011;7534;50.762;7.000;2022-12-18T14:17:55;21.27;;;11.13;;
14883;SDS011;7534;50.762;7.000;2022-12-18T14:20:25;22.37;;;13.00;;
14883;SDS011;7534;50.762;7.000;2022-12-18T14:22:54;18.97;;;11.07;;
14883;SDS011;7534;50.762;7.000;2022-12-18T14:25:23;27.30;;;18.52;;
14883;SDS011;7534;50.762;7.000;2022-12-18T14:28:04;27.50;;;18.85;;
14883;SDS011;7534;50.762;7.000;2022-12-18T14:30:40;25.20;;;14.17;;
14883;SDS011;7534;50.762;7.000;2022-12-18T14:33:09;23.10;;;12.53;;
14883;SDS011;7534;50.762;7.000;2022-12-18T14:36:02;22.87;;;12.37;;
14883;SDS011;7534;50.762;7.000;2022-12-18T14:38:34;22.77;;;12.13;;
14883;SDS011;7534;50.762;7.000;2022-12-18T14:41:06;19.97;;;11.93;;
14883;SDS011;7534;50.762;7.000;2022-12-18T14:43:39;22.57;;;12.93;;
14883;SDS011;7534;50.762;7.000;2022-12-18T14:48:59;23.20;;;13.67;;
14883;SDS011;7534;50.762;7.000;2022-12-18T14:51:30;21.47;;;12.30;;
14883;SDS011;7534;50.762;7.000;2022-12-18T14:54:00;22.10;;;11.73;;
14883;SDS011;7534;50.762;7.000;2022-12-18T14:56:46;24.30;;;12.73;;
14883;SDS011;7534;50.762;7.000;2022-12-18T14:59:18;21.60;;;12.20;;
14883;SDS011;7534;50.762;7.000;2022-12-18T15:07:56;22.73;;;12.03;;
14883;SDS011;7534;50.762;7.000;2022-12-18T15:10:31;22.20;;;11.97;;
14883;SDS011;7534;50.762;7.000;2022-12-18T15:20:43;21.37;;;12.37;;
14883;SDS011;7534;50.762;7.000;2022-12-18T15:26:09;24.27;;;12.67;;
14883;SDS011;7534;50.762;7.000;2022-12-18T15:28:38;24.40;;;12.77;;
14883;SDS011;7534;50.762;7.000;2022-12-18T15:33:38;23.20;;;12.30;;
14883;SDS011;7534;50.762;7.000;2022-12-18T15:36:14;23.17;;;12.67;;
14883;SDS011;7534;50.762;7.000;2022-12-18T15:38:46;25.00;;;12.83;;
14883;SDS011;7534;50.762;7.000;2022-12-18T15:41:14;23.00;;;12.70;;
14883;SDS011;7534;50.762;7.000;2022-12-18T15:43:42;25.10;;;13.50;;
14883;SDS011;7534;50.762;7.000;2022-12-18T15:46:19;22.93;;;12.47;;
14883;SDS011;7534;50.762;7.000;2022-12-18T15:48:49;22.80;;;12.27;;
14883;SDS011;7534;50.762;7.000;2022-12-18T15:53:48;22.13;;;12.13;;
14883;SDS011;7534;50.762;7.000;2022-12-18T15:56:19;23.33;;;13.10;;
14883;SDS011;7534;50.762;7.000;2022-12-18T15:59:13;26.23;;;12.77;;
14883;SDS011;7534;50.762;7.000;2022-12-18T16:01:45;25.30;;;12.50;;
14883;SDS011;7534;50.762;7.000;2022-12-18T16:04:14;23.53;;;12.90;;
14883;SDS011;7534;50.762;7.000;2022-12-18T16:06:43;26.77;;;13.73;;
14883;SDS011;7534;50.762;7.000;2022-12-18T16:09:09;24.87;;;13.20;;
14883;SDS011;7534;50.762;7.000;2022-12-18T16:11:36;25.23;;;13.67;;
14883;SDS011;7534;50.762;7.000;2022-12-18T16:14:06;25.13;;;13.00;;
14883;SDS011;7534;50.762;7.000;2022-12-18T16:16:44;25.90;;;13.90;;
14883;SDS011;7534;50.762;7.000;2022-12-18T16:19:13;23.53;;;13.17;;
14883;SDS011;7534;50.762;7.000;2022-12-18T16:21:39;23.67;;;12.27;;
14883;SDS011;7534;50.762;7.000;2022-12-18T16:24:09;24.13;;;13.27;;
14883;SDS011;7534;50.762;7.000;2022-12-18T16:26:46;24.27;;;13.07;;
14883;SDS011;7534;50.762;7.000;2022-12-18T16:29:14;25.80;;;13.10;;
14883;SDS011;7534;50.762;7.000;2022-12-18T16:31:43;29.83;;;13.77;;
14883;SDS011;7534;50.762;7.000;2022-12-18T16:34:23;26.50;;;14.07;;
14883;SDS011;7534;50.762;7.000;2022-12-18T16:36:54;23.40;;;12.53;;
14883;SDS011;7534;50.762;7.000;2022-12-18T16:39:21;29.43;;;14.27;;
14883;SDS011;7534;50.762;7.000;2022-12-18T16:41:47;26.73;;;13.00;;
14883;SDS011;7534;50.762;7.000;2022-12-18T16:44:15;26.57;;;14.60;;
14883;SDS011;7534;50.762;7.000;2022-12-18T16:46:42;22.00;;;12.60;;
14883;SDS011;7534;50.762;7.000;2022-12-18T16:49:10;25.90;;;13.07;;
14883;SDS011;7534;50.762;7.000;2022-12-18T16:51:42;27.13;;;14.40;;
14883;SDS011;7534;50.762;7.000;2022-12-18T16:54:10;26.33;;;12.83;;
14883;SDS011;7534;50.762;7.000;2022-12-18T16:56:37;25.80;;;13.43;;
14883;SDS011;7534;50.762;7.000;2022-12-18T16:59:04;28.93;;;13.60;;
14883;SDS011;7534;50.762;7.000;2022-12-18T17:01:31;24.73;;;13.10;;
14883;SDS011;7534;50.762;7.000;2022-12-18T17:03:58;25.63;;;14.17;;
14883;SDS011;7534;50.762;7.000;2022-12-18T17:06:31;27.67;;;13.70;;
14883;SDS011;7534;50.762;7.000;2022-12-18T17:09:02;25.57;;;13.57;;
14883;SDS011;7534;50.762;7.000;2022-12-18T17:11:36;27.90;;;14.43;;
14883;SDS011;7534;50.762;7.000;2022-12-18T17:14:10;27.13;;;14.67;;
14883;SDS011;7534;50.762;7.000;2022-12-18T17:16:41;25.50;;;14.43;;